Decoded Metar for KY50 ( in _UNIDENTIFIED) (IATA:N/A) | Meteo·Mobile Aviation Weather
aviador You're here:

KY50 Decoded Metar

in _UNIDENTIFIED
Report Time2018-09-22 18:56:00
UTC Time2018-09-22 19:15:42
Flight Rules vfr VFR
Wind160° at 06 kt
W.Rank160° ranks 18
Current wind is below 160° avg. (7.0)
Visibility9999 m
Phenomena:N/A
Clouds:N/A
Expected CloudBase > 4,800 ft AGL from Temp-Dew spread
CeilingNone
Temp17°C (ISA +4)
Dew Point05°C (45% RH)
AAT13.7°C
QNH1025 hPa
Density Alt1,014 ft
Elevation860 ft
Report Wrong Elevation
Raw Report
KY50 221856Z AUTO 16006KT 10SM CLR 17/05 A3028 RMK AO2 SLP285
T01670050=

Extra information for KY50:More info

Metar Taf Metar & Taf Last 4 Metars F.Rules Stats Wind Profile Meteogram Temp Stats Metar ALERT Operation Metar Decoded Social comments